Tiempo atmosférico en la estación meteorológica de Valderredible, Cubillo de Ebro, Cantabria (765 m.)



Fecha
DESCASC
Temp. máxima en grados centígrados (hora)
DESCASC
Temp. mínima en grados centígrados (hora)
DESCASC
Temp. media en grados centígrados
DESCASC
Racha de viento máxima en m/sg (hora)
DESCASC
Velocidad máxima media en intervalos de 10 minutos(hora)
DESCASC
Precipitaciones diarias en mm
DESCASC
Precipitaciones de 00:00 a 06:00 en mm
DESCASC
Precipitaciones de 06:00 a 12:00 en mm
DESCASC
Precipitaciones de 12:00 a 18:00 en mm
DESCASC
Precipitaciones de 18:00 a 24:00 en mm
DESCASC
15-08-2019 23.3 (15:30) 13.1 (23:59) 18.2 10 (18:20) 5 (19:00) 0 0 0 0 0
14-08-2019 27.9 (14:20) 6.7 (00:00) 17.3 10 (18:10) 4.72 (18:10) 0 0 0 0 0
13-08-2019 22.6 (15:40) 5.7 (00:00) 14.2 7.5 (16:50) 3.61 (13:30) 0 0 0 0 0
12-08-2019 19 (16:00) 6.1 (00:00) 12.5 11.39 (15:00) 5 (17:30) 0.8 0.8 0 0 0
11-08-2019 19.4 (13:50) 11.2 (00:00) 15.3 10.83 (18:10) 5.28 (18:20) 6.4 4 1.8 0.4 0.2
10-08-2019 25.8 (15:00) 12.2 (00:00) 19 10.83 (16:20) 6.11 (16:20) 0 0 0 0 0
09-08-2019 27.9 (16:20) 15.3 (00:00) 21.6 15.56 (15:50) 7.78 (17:50) 0.2 0 0.2 0 0
08-08-2019 30.7 (17:20) 17.3 (00:00) 24 12.5 (19:50) 6.39 (16:00) 0 0 0 0 0
07-08-2019 28.3 (15:40) 14.7 (00:00) 21.5 12.22 (17:40) 6.39 (17:40) 0.6 0.6 0 0 0
06-08-2019 31.4 (15:20) 9.2 (00:00) 20.3 9.17 (19:50) 5.28 (19:50) 0.6 0 0 0 0.6
05-08-2019 30.3 (15:30) 10 (00:00) 20.1 10 (17:50) 5.83 (17:40) 0 0 0 0 0
04-08-2019 30.5 (15:50) 10.6 (00:00) 20.6 10 (19:20) 5.56 (17:10) 0 0 0 0 0
03-08-2019 33.2 (15:50) 11.6 (00:00) 22.4 8.89 (18:40) 5.28 (19:00) 0 0 0 0 0
02-08-2019 29.3 (16:30) 11.8 (00:00) 20.5 7.5 (14:50) 4.17 (14:50) 0 0 0 0 0
01-08-2019 22.8 (17:20) 13 (00:00) 17.9 7.78 (19:00) 4.17 (18:30) 0 0 0 0 0
31-07-2019 23 (16:40) 7.6 (00:00) 15.3 7.5 (14:00) 4.72 (14:00) 0 0 0 0 0
30-07-2019 20.4 (15:00) 10.7 (00:00) 15.5 9.17 (17:30) 4.72 (17:50) 0 0 0 0 0
29-07-2019 27.8 (16:30) 6.1 (00:00) 16.9 11.11 (17:10) 6.11 (17:40) 0 0 0 0 0
28-07-2019 25.9 (19:20) 7.4 (00:00) 16.6 5.83 (16:00) 2.78 (16:10) 0 0 0 0 0
27-07-2019 16.1 (18:40) 11.6 (00:00) 13.9 8.61 (20:30) 3.89 (18:50) 13.2 4.6 5 3.6 0
26-07-2019 18.6 (16:50) 13.9 (00:00) 16.3 9.44 (17:30) 5.56 (17:20) 0.6 0 0 0.4 0.2
25-07-2019 34.6 (17:30) 13 (00:00) 23.8 10 (14:30) 5.83 (18:10) 0 0 0 0 0
24-07-2019 35.6 (19:00) 13 (00:00) 24.3 10 (16:50) 5 (17:50) 0 0 0 0 0
23-07-2019 35.5 (18:30) 12.1 (00:00) 23.8 18.89 (19:50) 9.72 (19:50) 1 0 0 0 1
22-07-2019 36.2 (16:50) 17.9 (00:00) 27.1 12.78 (21:40) 6.94 (21:50) 0 0 0 0 0
21-07-2019 29.3 (17:20) 16.5 (00:00) 22.9 9.44 (18:20) 6.11 (18:20) 0 0 0 0 0
20-07-2019 27.9 (15:30) 11.1 (00:00) 19.5 10 (18:50) 5.83 (19:10) 0 0 0 0 0
19-07-2019 34.3 (18:20) 7.5 (00:00) 20.9 8.61 (17:10) 4.17 (17:10) 0 0 0 0 0

Gráficas

Temp. máximas Temp. mínimas Temp. medias Precipitaciones Rachas de viento máximas Velocidades máximas media en intervalos de 10 minutos

Datos horarios

Fecha y hora oficial Temperatura (ºC) Velocidad del viento (km/h) Dirección del viento Racha (km/h) Dirección de racha Precipitación (mm) Presión (hPa) Tendencia (hPa) Humedad (%)
2019-08-17 23:00:00 18.7 0 Calma 8 Este 0 -- -- 80
2019-08-17 22:00:00 21.5 4 Este 10 Este 0 -- -- 72
2019-08-17 21:00:00 25.2 3 Sudeste 23 Noroeste 0 -- -- 58
2019-08-17 20:00:00 31.5 13 Oeste 24 Sudoeste 0 -- -- 33
2019-08-17 19:00:00 33.4 12 Sudoeste 31 Oeste 0 -- -- 21
2019-08-17 18:00:00 33.6 10 Sudoeste 30 Sudoeste 0 -- -- 22
2019-08-17 17:00:00 33.2 14 Sudoeste 38 Sudoeste 0 -- -- 22
2019-08-17 16:00:00 32.9 13 Sudoeste 37 Oeste 0 -- -- 23
2019-08-17 15:00:00 31.6 13 Sudoeste 28 Sudoeste 0 -- -- 27
2019-08-17 14:00:00 29.5 8 Sudoeste 16 Este 0 -- -- 34
2019-08-17 13:00:00 27.1 4 Este 11 Sudeste 0 -- -- 39
2019-08-17 12:00:00 24.1 6 Sudeste 10 Sudeste 0 -- -- 43
2019-08-17 11:00:00 19.4 4 Este 7 Este 0 -- -- 61
2019-08-17 10:00:00 15 3 Este 6 Sudoeste 0 -- -- 74
2019-08-17 09:00:00 10 3 Oeste 6 Este 0 -- -- 92
2019-08-17 08:00:00 7.4 2 Sudoeste 8 Sudoeste 0 -- -- 96
2019-08-17 07:00:00 7.7 0 Calma 8 Sudoeste 0 -- -- 94
2019-08-17 06:00:00 8.7 0 Calma 11 Oeste 0 -- -- 93
2019-08-17 05:00:00 9.4 4 Oeste 10 Oeste 0 -- -- 93
2019-08-17 04:00:00 10.3 5 Oeste 10 Oeste 0 -- -- 91
2019-08-17 03:00:00 11.2 2 Sur 5 Noroeste 0 -- -- 90
2019-08-17 02:00:00 12 0 Calma 8 Oeste 0 -- -- 88
2019-08-17 01:00:00 13.3 2 Oeste 10 Noroeste 0 -- -- 82
2019-08-17 00:00:00 15 3 Este 6 Noroeste 0 -- -- 82
2019-08-16 23:00:00 17 2 Este 6 Nordeste 0 -- -- 76
2019-08-16 22:00:00 19.4 3 Nordeste 10 Sudeste 0 -- -- 69
2019-08-16 21:00:00 21.8 6 Este 26 Noroeste 0 -- -- 61
2019-08-16 20:00:00 25.3 12 Norte 28 Norte 0 -- -- 49
2019-08-16 19:00:00 28 14 Norte 29 Noroeste 0 -- -- 41
2019-08-16 18:00:00 29.9 15 Norte 30 Noroeste 0 -- -- 38
2019-08-16 17:00:00 31.2 14 Noroeste 29 Oeste 0 -- -- 36
2019-08-16 16:00:00 32.6 9 Sur 26 Sudoeste 0 -- -- 27
2019-08-16 15:00:00 31.9 10 Sudoeste 26 Oeste 0 -- -- 29
2019-08-16 14:00:00 30 7 Sur 16 Este 0 -- -- 34
2019-08-16 13:00:00 27.5 4 Oeste 10 Sudeste 0 -- -- 43
2019-08-16 12:00:00 23.4 5 Este 10 Este 0 -- -- 54
2019-08-16 11:00:00 18.7 5 Este 9 Este 0 -- -- 71
2019-08-16 10:00:00 14 4 Sudeste 8 Este 0 -- -- 93
2019-08-16 09:00:00 10.9 3 Noroeste 11 Norte 0 -- -- 98
2019-08-16 08:00:00 10.7 7 Noroeste 11 Noroeste 0 -- -- 97
2019-08-16 07:00:00 11.2 6 Noroeste 9 Noroeste 0 -- -- 96
2019-08-16 06:00:00 11.7 4 Oeste 9 Oeste 0 -- -- 96
2019-08-16 05:00:00 11.9 3 Oeste 12 Noroeste 0 -- -- 96
2019-08-16 04:00:00 11.4 3 Oeste 8 Norte 0 -- -- 95
2019-08-16 03:00:00 11.1 6 Noroeste 9 Noroeste 0 -- -- 95
2019-08-16 02:00:00 11.5 3 Noroeste 6 Noroeste 0 -- -- 93
2019-08-16 01:00:00 12.1 0 Calma 5 Nordeste 0 -- -- 92
2019-08-16 00:00:00 13.1 3 Nordeste 4 Nordeste 0 -- -- 90
2019-08-15 23:00:00 14.5 2 Este 7 Nordeste 0 -- -- 86
2019-08-15 22:00:00 15.6 6 Norte 10 Noroeste 0 -- -- 83
2019-08-15 21:00:00 17.6 3 Oeste 19 Noroeste 0 -- -- 75
2019-08-15 20:00:00 19.2 11 Norte 29 Noroeste 0 -- -- 71
2019-08-15 19:00:00 19.9 18 Noroeste 36 Noroeste 0 -- -- 68
2019-08-15 18:00:00 21.5 15 Norte 30 Noroeste 0 -- -- 62
2019-08-15 17:00:00 22 17 Noroeste 34 Noroeste 0 -- -- 59
2019-08-15 16:00:00 22.8 15 Noroeste 28 Oeste 0 -- -- 55
2019-08-15 15:00:00 22.5 15 Noroeste 34 Noroeste 0 -- -- 54
2019-08-15 14:00:00 22.6 13 Noroeste 27 Nordeste 0 -- -- 54
2019-08-15 13:00:00 20.7 6 Sudeste 21 Este 0 -- -- 60
2019-08-15 12:00:00 18.8 6 Norte 15 Norte 0 -- -- 67
2019-08-15 11:00:00 17.4 6 Norte 14 Nordeste 0 -- -- 73
2019-08-15 10:00:00 16.7 8 Nordeste 13 Norte 0 -- -- 77
2019-08-15 09:00:00 15.3 6 Este 10 Este 0 -- -- 88
2019-08-15 08:00:00 14.2 3 Este 10 Este 0 -- -- 91
2019-08-15 07:00:00 14.7 4 Este 12 Este 0 -- -- 87
2019-08-15 06:00:00 16.1 3 Este 8 Norte 0 -- -- 88
2019-08-15 05:00:00 16.1 2 Oeste 8 Este 0 -- -- 90
2019-08-15 04:00:00 16.3 4 Nordeste 7 Este 0 -- -- 90
2019-08-15 03:00:00 16.1 0 Calma 6 Este 0 -- -- 89
2019-08-15 02:00:00 15.7 2 Sudeste 4 Sudoeste 0 -- -- 88
2019-08-15 01:00:00 15.3 0 Calma 7 Este 0 -- -- 89
2019-08-15 00:00:00 15.7 3 Este 15 Este 0 -- -- 86
2019-08-14 23:00:00 17 6 Este 13 Este 0 -- -- 80
2019-08-14 22:00:00 18.2 6 Nordeste 15 Norte 0 -- -- 72
2019-08-14 21:00:00 20.7 7 Noroeste 19 Noroeste 0 -- -- 61
2019-08-14 20:00:00 23.4 10 Norte 26 Noroeste 0 -- -- 53
2019-08-14 19:00:00 24.5 13 Noroeste 36 Noroeste 0 -- -- 51
2019-08-14 18:00:00 25.6 10 Norte 28 Norte 0 -- -- 48
2019-08-14 17:00:00 27.3 14 Noroeste 30 Oeste 0 -- -- 45
2019-08-14 16:00:00 26.8 10 Norte 24 Norte 0 -- -- 42
2019-08-14 15:00:00 27.8 5 Este 18 Sudeste 0 -- -- 36
2019-08-14 14:00:00 26.9 7 Este 16 Este 0 -- -- 37
2019-08-14 13:00:00 25.1 6 Sudeste 12 Este 0 -- -- 40
2019-08-14 12:00:00 21 3 Sur 9 Este 0 -- -- 53
2019-08-14 11:00:00 16.1 3 Sudeste 9 Este 0 -- -- 74
2019-08-14 10:00:00 11.6 6 Este 10 Este 0 -- -- 91
2019-08-14 09:00:00 8.1 0 Calma 4 Sudeste 0 -- -- 98
2019-08-14 08:00:00 7 3 Sudoeste 5 Noroeste 0 -- -- 97
2019-08-14 07:00:00 6.7 2 Nordeste 9 Oeste 0 -- -- 96
2019-08-14 06:00:00 7.3 5 Oeste 10 Sudoeste 0 -- -- 96
2019-08-14 05:00:00 7.5 6 Oeste 10 Oeste 0 -- -- 95
2019-08-14 04:00:00 8.1 3 Oeste 9 Oeste 0 -- -- 95
2019-08-14 03:00:00 9 0 Calma 5 Sudoeste 0 -- -- 94
2019-08-14 02:00:00 9.5 0 Calma 7 Oeste 0 -- -- 93
2019-08-14 01:00:00 10.6 0 Calma 3 Sudeste 0 -- -- 89
2019-08-14 00:00:00 12.1 0 Calma 4 Este 0 -- -- 86
2019-08-13 23:00:00 13.9 0 Calma 7 Este 0 -- -- 81
2019-08-13 22:00:00 15.7 4 Noroeste 16 Norte 0 -- -- 74
2019-08-13 21:00:00 18.3 10 Norte 15 Norte 0 -- -- 63
2019-08-13 20:00:00 21.7 8 Este 18 Noroeste 0 -- -- 46
2019-08-13 19:00:00 21.9 9 Norte 19 Norte 0 -- -- 50
2019-08-13 18:00:00 22.3 10 Nordeste 24 Noroeste 0 -- -- 47
2019-08-13 17:00:00 22.2 12 Noroeste 27 Noroeste 0 -- -- 45
2019-08-13 16:00:00 22.4 12 Noroeste 23 Oeste 0 -- -- 39
2019-08-13 15:00:00 21.7 11 Sudeste 22 Este 0 -- -- 41
2019-08-13 14:00:00 20.1 10 Sudeste 24 Sudeste 0 -- -- 46
2019-08-13 13:00:00 18.5 9 Sudeste 21 Sudeste 0 -- -- 50
2019-08-13 12:00:00 15.8 5 Sudeste 13 Sudeste 0 -- -- 63
2019-08-13 11:00:00 13.9 5 Sudeste 10 Sudeste 0 -- -- 73
2019-08-13 10:00:00 9.5 5 Este 9 Este 0 -- -- 98
2019-08-13 09:00:00 6.5 2 Sur 10 Oeste 0 -- -- 97
2019-08-13 08:00:00 5.7 0 Calma 6 Oeste 0 -- -- 96
2019-08-13 07:00:00 6.2 4 Oeste 7 Oeste 0 -- -- 96
2019-08-13 06:00:00 6.6 3 Oeste 4 Oeste 0 -- -- 95
2019-08-13 05:00:00 7.5 2 Este 9 Oeste 0 -- -- 94
2019-08-13 04:00:00 8.2 4 Este 6 Noroeste 0 -- -- 92
2019-08-13 03:00:00 9 4 Este 6 Noroeste 0 -- -- 89
2019-08-13 02:00:00 10.1 2 Nordeste 9 Norte 0 -- -- 87
2019-08-13 01:00:00 11.5 4 Nordeste 10 Nordeste 0 -- -- 81
2019-08-13 00:00:00 11.5 3 Este 10 Este 0 -- -- 81
2019-08-12 23:00:00 12.2 8 Este 14 Este 0 -- -- 77
2019-08-12 22:00:00 12.7 4 Este 15 Nordeste 0 -- -- 72
2019-08-12 21:00:00 13.4 5 Nordeste 23 Nordeste 0 -- -- 70
2019-08-12 20:00:00 14.7 11 Nordeste 32 Nordeste 0 -- -- 66
2019-08-12 19:00:00 16.3 16 Norte 30 Norte 0 -- -- 60
2019-08-12 18:00:00 17.3 18 Norte 41 Norte 0 -- -- 58
2019-08-12 17:00:00 18.4 17 Norte 37 Norte 0 -- -- 55
2019-08-12 16:00:00 19 15 Norte 33 Norte 0 -- -- 50
2019-08-12 15:00:00 17.9 18 Norte 41 Noroeste 0 -- -- 53
2019-08-12 14:00:00 18.4 12 Norte 31 Norte 0 -- -- 48
2019-08-12 13:00:00 17.8 12 Norte 27 Norte 0 -- -- 54
2019-08-12 12:00:00 16.1 12 Norte 27 Norte 0 -- -- 57
2019-08-12 11:00:00 15.4 7 Noroeste 17 Norte 0 -- -- 63
2019-08-12 10:00:00 12.4 3 Sudeste 6 Este 0 -- -- 86
2019-08-12 09:00:00 8.2 2 Oeste 7 Noroeste 0 -- -- 97
2019-08-12 08:00:00 6.1 2 Oeste 7 Oeste 0 -- -- 97
2019-08-12 07:00:00 6.7 2 Sudoeste 5 Sudoeste 0 -- -- 96
2019-08-12 06:00:00 7.6 3 Oeste 6 Sur 0.2 -- -- 96
2019-08-12 05:00:00 8.2 4 Oeste 6 Sudoeste 0 -- -- 96
2019-08-12 04:00:00 8.7 0 Calma 4 Este 0 -- -- 94
2019-08-12 03:00:00 9.8 0 Calma 6 Nordeste 0 -- -- 93
2019-08-12 02:00:00 10.5 7 Este 14 Este 0 -- -- 92
2019-08-12 01:00:00 11.3 7 Este 14 Sudeste 0.6 -- -- 88
2019-08-12 00:00:00 12 4 Este 10 Este 0 -- -- 79
2019-08-11 23:00:00 12.3 4 Este 18 Este 0 -- -- 79
2019-08-11 22:00:00 12.8 5 Nordeste 29 Norte 0 -- -- 77
2019-08-11 21:00:00 13.4 13 Norte 32 Noroeste 0 -- -- 72
2019-08-11 20:00:00 15 18 Norte 37 Norte 0.2 -- -- 67
2019-08-11 19:00:00 15.9 17 Noroeste 39 Noroeste 0 -- -- 73
2019-08-11 18:00:00 16.1 17 Norte 33 Norte 0 -- -- 76
2019-08-11 17:00:00 16.8 14 Norte 27 Norte 0 -- -- 74
2019-08-11 16:00:00 16 8 Noroeste 27 Norte 0.4 -- -- 84
2019-08-11 15:00:00 15.2 19 Noroeste 37 Oeste 0 -- -- 77
2019-08-11 14:00:00 19.3 8 Este 15 Este 0 -- -- 62
2019-08-11 13:00:00 18.2 7 Sudeste 15 Nordeste 0 -- -- 68
2019-08-11 12:00:00 15.1 7 Norte 17 Noroeste 0 -- -- 84
2019-08-11 11:00:00 13.8 6 Noroeste 14 Noroeste 0 -- -- 88
2019-08-11 10:00:00 13.1 5 Noroeste 13 Noroeste 0 -- -- 92
2019-08-11 09:00:00 12.2 3 Noroeste 5 Oeste 0 -- -- 94
2019-08-11 08:00:00 11.4 3 Oeste 8 Noroeste 0 -- -- 95
2019-08-11 07:00:00 11.4 6 Oeste 11 Sudoeste 1.8 -- -- 94
2019-08-11 06:00:00 12.2 6 Sudoeste 12 Noroeste 1.6 -- -- 94
2019-08-11 05:00:00 12.7 5 Este 9 Nordeste 2 -- -- 91
2019-08-11 04:00:00 13.9 0 Calma 10 Nordeste 0.4 -- -- 80
2019-08-11 03:00:00 14.5 3 Noroeste 9 Oeste 0 -- -- 66
2019-08-11 02:00:00 14.5 2 Oeste 12 Noroeste 0 -- -- 66
2019-08-11 01:00:00 14.3 5 Noroeste 12 Nordeste 0 -- -- 71
2019-08-11 00:00:00 14.5 7 Norte 14 Norte 0 -- -- 71
2019-08-10 23:00:00 14.5 4 Nordeste 20 Norte 0 -- -- 68
2019-08-10 22:00:00 14.9 8 Norte 19 Noroeste 0 -- -- 73
2019-08-10 21:00:00 15.1 6 Norte 28 Oeste 0 -- -- 73
2019-08-10 20:00:00 16.4 15 Norte 33 Norte 0 -- -- 72
2019-08-10 19:00:00 18.2 16 Norte 33 Noroeste 0 -- -- 68
2019-08-10 18:00:00 20.8 17 Norte 34 Noroeste 0 -- -- 61
2019-08-10 17:00:00 22.9 14 Norte 39 Noroeste 0 -- -- 55
2019-08-10 16:00:00 24.9 14 Noroeste 25 Noroeste 0 -- -- 48
2019-08-10 15:00:00 25.8 8 Sudoeste 24 Sudeste 0 -- -- 39
2019-08-10 14:00:00 24.7 11 Este 21 Este 0 -- -- 35
2019-08-10 13:00:00 23.2 8 Sudoeste 17 Sudeste 0 -- -- 40
2019-08-10 12:00:00 22.2 5 Este 15 Nordeste 0 -- -- 41
2019-08-10 11:00:00 20.5 3 Norte 12 Sudeste 0 -- -- 53
2019-08-10 10:00:00 17.9 3 Sudeste 6 Este 0 -- -- 68
2019-08-10 09:00:00 13.6 2 Sur 6 Noroeste 0 -- -- 85
2019-08-10 08:00:00 12.2 4 Noroeste 6 Noroeste 0 -- -- 89
2019-08-10 07:00:00 12.3 3 Sur 7 Oeste 0 -- -- 88
2019-08-10 06:00:00 12.5 0 Calma 8 Oeste 0 -- -- 87
2019-08-10 05:00:00 13 3 Oeste 5 Oeste 0 -- -- 86
2019-08-10 04:00:00 13.3 2 Este 9 Noroeste 0 -- -- 85
2019-08-10 03:00:00 13.8 3 Noroeste 9 Noroeste 0 -- -- 82
2019-08-10 02:00:00 14.9 4 Noroeste 8 Noroeste 0 -- -- 79
2019-08-10 01:00:00 15.7 4 Oeste 12 Este 0 -- -- 74
2019-08-10 00:00:00 15.3 4 Sudeste 10 Este 0 -- -- 66
2019-08-09 23:00:00 17.6 4 Este 6 Nordeste 0 -- -- 58
2019-08-09 22:00:00 20.3 2 Norte 26 Sudoeste 0 -- -- 47
2019-08-09 21:00:00 22.2 9 Sudoeste 31 Sudoeste 0 -- -- 42
2019-08-09 20:00:00 24.4 16 Oeste 34 Sudoeste 0 -- -- 38
2019-08-09 19:00:00 26.3 17 Sudoeste 41 Sudoeste 0 -- -- 34
2019-08-09 18:00:00 25.7 21 Sudoeste 50 Sudoeste 0 -- -- 31
2019-08-09 17:00:00 27.5 19 Sudoeste 49 Oeste 0 -- -- 30
2019-08-09 16:00:00 27.7 20 Sudoeste 56 Sudoeste 0 -- -- 35
2019-08-09 15:00:00 25.8 19 Sudoeste 53 Sur 0 -- -- 42
2019-08-09 14:00:00 24.7 23 Sudoeste 44 Sudoeste 0 -- -- 45
2019-08-09 13:00:00 23.5 19 Sudoeste 49 Sudoeste 0 -- -- 53
2019-08-09 12:00:00 20.9 19 Sudoeste 37 Sudoeste 0.2 -- -- 67
2019-08-09 11:00:00 19.7 23 Sudoeste 43 Sudoeste 0 -- -- 82
2019-08-09 10:00:00 19.9 13 Sudoeste 38 Sudoeste 0 -- -- 84
2019-08-09 09:00:00 21.3 18 Sudoeste 37 Sudoeste 0 -- -- 72
2019-08-09 08:00:00 20.9 13 Sudoeste 31 Sudoeste 0 -- -- 72
2019-08-09 07:00:00 21.1 17 Sudoeste 39 Sudoeste 0 -- -- 71
2019-08-09 06:00:00 20.8 10 Sudoeste 27 Sur 0 -- -- 70
2019-08-09 05:00:00 21.4 9 Sur 23 Sudoeste 0 -- -- 65
2019-08-09 04:00:00 22.4 8 Sudoeste 30 Sudoeste 0 -- -- 63
2019-08-09 03:00:00 22.9 6 Sudoeste 33 Sudoeste 0 -- -- 61
2019-08-09 02:00:00 23 8 Sudoeste 39 Sudoeste 0 -- -- 62
2019-08-09 01:00:00 23.4 11 Sudoeste 30 Sudoeste 0 -- -- 60
2019-08-09 00:00:00 23.7 11 Oeste 34 Oeste 0 -- -- 62
2019-08-08 23:00:00 25.3 18 Oeste 36 Sudoeste 0 -- -- 55
2019-08-08 22:00:00 26.1 10 Sudoeste 41 Sudoeste 0 -- -- 51
2019-08-08 21:00:00 27.1 18 Sudoeste 43 Sudoeste 0 -- -- 47
2019-08-08 20:00:00 29.2 18 Sudoeste 45 Sudoeste 0 -- -- 44
2019-08-08 19:00:00 29.2 12 Sudoeste 35 Sudoeste 0 -- -- 48
2019-08-08 18:00:00 29.7 14 Sudoeste 36 Sudoeste 0 -- -- 46
2019-08-08 17:00:00 30 19 Sudoeste 41 Sudoeste 0 -- -- 45
2019-08-08 16:00:00 28.3 23 Oeste 41 Sudoeste 0 -- -- 52
2019-08-08 15:00:00 27 19 Sudoeste 41 Sur 0 -- -- 55
2019-08-08 14:00:00 24.7 13 Sudoeste 28 Sur 0 -- -- 61
2019-08-08 13:00:00 24.6 16 Sudoeste 31 Sudoeste 0 -- -- 62
2019-08-08 12:00:00 23.6 11 Sudoeste 37 Sudoeste 0 -- -- 63
2019-08-08 11:00:00 24 14 Sudoeste 34 Sudoeste 0 -- -- 62
2019-08-08 10:00:00 21.4 13 Sudoeste 30 Sur 0 -- -- 70
2019-08-08 09:00:00 19.6 11 Sudoeste 24 Sudoeste 0 -- -- 78
2019-08-08 08:00:00 18.6 4 Oeste 14 Oeste 0 -- -- 81
2019-08-08 07:00:00 18.3 9 Oeste 19 Oeste 0 -- -- 81
2019-08-08 06:00:00 18.3 11 Noroeste 27 Oeste 0 -- -- 80
2019-08-08 05:00:00 18.4 11 Oeste 32 Sudoeste 0 -- -- 78
2019-08-08 04:00:00 18.5 8 Oeste 17 Oeste 0 -- -- 77
2019-08-08 03:00:00 17.3 2 Oeste 13 Sudoeste 0 -- -- 81
2019-08-08 02:00:00 17.6 6 Noroeste 17 Oeste 0 -- -- 80
2019-08-08 01:00:00 18.1 14 Oeste 22 Oeste 0 -- -- 80
2019-08-08 00:00:00 18.2 6 Oeste 17 Oeste 0 -- -- 80
2019-08-07 23:00:00 18.8 9 Oeste 27 Sudoeste 0 -- -- 77
2019-08-07 22:00:00 20.8 8 Sudoeste 18 Sudoeste 0 -- -- 62
2019-08-07 21:00:00 21.2 8 Oeste 28 Oeste 0 -- -- 60
2019-08-07 20:00:00 22.2 15 Oeste 39 Oeste 0 -- -- 57
2019-08-07 19:00:00 22.9 14 Oeste 32 Oeste 0 -- -- 56
2019-08-07 18:00:00 23.6 14 Sudoeste 44 Sudoeste 0 -- -- 52
2019-08-07 17:00:00 25.8 12 Sudoeste 30 Sudoeste 0 -- -- 44
2019-08-07 16:00:00 27 15 Sudoeste 26 Sudoeste 0 -- -- 41
2019-08-07 15:00:00 27.8 10 Sudoeste 19 Sudoeste 0 -- -- 39
2019-08-07 14:00:00 26.5 4 Sudoeste 13 Sudeste 0 -- -- 43
2019-08-07 13:00:00 25.1 6 Nordeste 17 Sudeste 0 -- -- 48
2019-08-07 12:00:00 22.7 6 Este 14 Este 0 -- -- 64
2019-08-07 11:00:00 20.1 4 Sudeste 8 Sudeste 0 -- -- 75
2019-08-07 10:00:00 16.7 2 Nordeste 5 Este 0 -- -- 96
2019-08-07 09:00:00 15.2 2 Este 6 Nordeste 0 -- -- 98
2019-08-07 08:00:00 14.7 3 Este 11 Oeste 0 -- -- 97
2019-08-07 07:00:00 14.7 8 Oeste 12 Noroeste 0 -- -- 96
2019-08-07 06:00:00 15.1 5 Noroeste 7 Oeste 0 -- -- 96
2019-08-07 05:00:00 15.4 0 Calma 8 Este 0.2 -- -- 96
2019-08-07 04:00:00 15.6 2 Sur 8 Noroeste 0 -- -- 96
2019-08-07 03:00:00 15.7 3 Noroeste 5 Oeste 0 -- -- 96
2019-08-07 02:00:00 15.9 2 Noroeste 8 Oeste 0 -- -- 95
2019-08-07 01:00:00 16.1 4 Noroeste 14 Este 0.4 -- -- 94
2019-08-07 00:00:00 16.4 3 Sudeste 12 Noroeste 0.2 -- -- 92
2019-08-06 23:00:00 16.6 4 Noroeste 31 Este 0.4 -- -- 89
2019-08-06 22:00:00 17.4 8 Este 30 Noroeste 0 -- -- 83
2019-08-06 21:00:00 17.9 15 Norte 31 Norte 0 -- -- 80
2019-08-06 20:00:00 19.1 15 Norte 33 Noroeste 0 -- -- 78
2019-08-06 19:00:00 21.7 17 Noroeste 29 Noroeste 0 -- -- 70
2019-08-06 18:00:00 24.3 17 Norte 29 Norte 0 -- -- 62
2019-08-06 17:00:00 26.8 14 Noroeste 30 Noroeste 0 -- -- 54
2019-08-06 16:00:00 30.8 8 Sur 23 Sudoeste 0 -- -- 29
2019-08-06 15:00:00 30.4 8 Oeste 22 Sudoeste 0 -- -- 32
2019-08-06 14:00:00 28.6 6 Sudoeste 13 Este 0 -- -- 40
2019-08-06 13:00:00 26 3 Sudoeste 12 Sudeste 0 -- -- 44
2019-08-06 12:00:00 23 3 Sudeste 10 Este 0 -- -- 52
2019-08-06 11:00:00 19.8 5 Este 9 Sudeste 0 -- -- 65
2019-08-06 10:00:00 14.8 2 Sudoeste 5 Sudeste 0 -- -- 86
2019-08-06 09:00:00 12.1 2 Sudoeste 5 Oeste 0 -- -- 97
2019-08-06 08:00:00 9.8 5 Sudoeste 12 Oeste 0 -- -- 97
2019-08-06 07:00:00 9.3 0 Calma 8 Sudoeste 0 -- -- 96
2019-08-06 06:00:00 9.8 3 Oeste 6 Oeste 0 -- -- 95
2019-08-06 05:00:00 10.4 3 Oeste 6 Oeste 0 -- -- 93
2019-08-06 04:00:00 11.4 0 Calma 4 Sudoeste 0 -- -- 93
2019-08-06 03:00:00 12.1 0 Calma 4 Sudoeste 0 -- -- 92
2019-08-06 02:00:00 13.2 2 Sudoeste 5 Oeste 0 -- -- 91
2019-08-06 01:00:00 14.4 2 Este 7 Nordeste 0 -- -- 87
2019-08-06 00:00:00 15.7 2 Sudeste 6 Este 0 -- -- 83
2019-08-05 23:00:00 17.4 3 Noroeste 11 Noroeste 0 -- -- 75
2019-08-05 22:00:00 19.1 7 Noroeste 12 Noroeste 0 -- -- 64
2019-08-05 21:00:00 21.7 7 Norte 22 Norte 0 -- -- 54
2019-08-05 20:00:00 23.2 13 Norte 27 Norte 0 -- -- 57
2019-08-05 19:00:00 24.5 17 Norte 33 Noroeste 0 -- -- 58
2019-08-05 18:00:00 25.5 18 Noroeste 36 Noroeste 0 -- -- 58
2019-08-05 17:00:00 27.4 15 Norte 32 Oeste 0 -- -- 54
2019-08-05 16:00:00 28.5 15 Noroeste 30 Noroeste 0 -- -- 50
2019-08-05 15:00:00 29.2 5 Nordeste 15 Noroeste 0 -- -- 41
2019-08-05 14:00:00 27.3 3 Este 14 Sur 0 -- -- 45
2019-08-05 13:00:00 25 5 Sudeste 14 Este 0 -- -- 53
2019-08-05 12:00:00 21.7 4 Sudeste 12 Este 0 -- -- 65
2019-08-05 11:00:00 17.2 4 Este 8 Este 0 -- -- 83
2019-08-05 10:00:00 13 3 Sudeste 5 Sudeste 0 -- -- 98
2019-08-05 09:00:00 11.9 2 Este 4 Sudeste 0 -- -- 98
2019-08-05 08:00:00 10.9 2 Este 4 Este 0 -- -- 97
2019-08-05 07:00:00 10.4 0 Calma 4 Oeste 0 -- -- 97
2019-08-05 06:00:00 10.2 2 Oeste 4 Oeste 0 -- -- 96
2019-08-05 05:00:00 10.5 3 Oeste 5 Noroeste 0 -- -- 95
2019-08-05 04:00:00 11.3 0 Calma 5 Oeste 0 -- -- 94
2019-08-05 03:00:00 12.1 0 Calma 3 Sudoeste 0 -- -- 93
2019-08-05 02:00:00 13.2 0 Calma 3 Este 0 -- -- 91
2019-08-05 01:00:00 14.7 0 Calma 5 Este 0 -- -- 89
2019-08-05 00:00:00 16.2 3 Nordeste 12 Este 0 -- -- 84
2019-08-04 23:00:00 17.4 5 Sudeste 14 Este 0 -- -- 81
2019-08-04 22:00:00 17.7 6 Sur 25 Norte 0 -- -- 80
2019-08-04 21:00:00 18.7 6 Nordeste 28 Norte 0 -- -- 76
2019-08-04 20:00:00 19.5 19 Noroeste 36 Noroeste 0 -- -- 75
2019-08-04 19:00:00 22.4 14 Noroeste 32 Noroeste 0 -- -- 68
2019-08-04 18:00:00 24.2 16 Noroeste 32 Noroeste 0 -- -- 63
2019-08-04 17:00:00 25.6 19 Noroeste 32 Noroeste 0 -- -- 59
2019-08-04 16:00:00 29.3 14 Noroeste 28 Norte 0 -- -- 49
2019-08-04 15:00:00 28.4 6 Sudoeste 13 Sudeste 0 -- -- 45
2019-08-04 14:00:00 26.2 7 Sudeste 14 Sudeste 0 -- -- 52
2019-08-04 13:00:00 23.7 4 Sudeste 18 Este 0 -- -- 57
2019-08-04 12:00:00 21.6 11 Sudeste 18 Sudeste 0 -- -- 65
2019-08-04 11:00:00 19.7 6 Este 15 Este 0 -- -- 71
2019-08-04 10:00:00 15 4 Sur 6 Sudoeste 0 -- -- 93
2019-08-04 09:00:00 12.2 3 Oeste 5 Este 0 -- -- 95
2019-08-04 08:00:00 11.1 0 Calma 4 Nordeste 0 -- -- 96
2019-08-04 07:00:00 10.6 0 Calma 11 Oeste 0 -- -- 96
2019-08-04 06:00:00 11 0 Calma 5 Oeste 0 -- -- 95
2019-08-04 05:00:00 11.6 0 Calma 3 Oeste 0 -- -- 94
2019-08-04 04:00:00 12.2 0 Calma 4 Oeste 0 -- -- 94
2019-08-04 03:00:00 13.2 0 Calma 4 Sudoeste 0 -- -- 93
2019-08-04 02:00:00 14 2 Sudoeste 5 Este 0 -- -- 90
2019-08-04 01:00:00 15.2 4 Este 6 Nordeste 0 -- -- 88
2019-08-04 00:00:00 16.2 3 Nordeste 6 Nordeste 0 -- -- 86
2019-08-03 23:00:00 17.4 2 Nordeste 10 Sudeste 0 -- -- 83
2019-08-03 22:00:00 19.3 7 Sur 19 Este 0 -- -- 77
2019-08-03 21:00:00 21.3 6 Nordeste 28 Norte 0 -- -- 74
2019-08-03 20:00:00 23 15 Noroeste 32 Noroeste 0 -- -- 70
2019-08-03 19:00:00 25.7 19 Norte 32 Norte 0 -- -- 60
2019-08-03 18:00:00 29.7 15 Noroeste 27 Noroeste 0 -- -- 49
2019-08-03 17:00:00 31.7 13 Norte 28 Noroeste 0 -- -- 36
2019-08-03 16:00:00 32.9 8 Nordeste 17 Nordeste 0 -- -- 27
2019-08-03 15:00:00 31.5 7 Nordeste 19 Este 0 -- -- 29
2019-08-03 14:00:00 30.1 6 Este 15 Este 0 -- -- 34
2019-08-03 13:00:00 27.2 8 Este 13 Sudeste 0 -- -- 44
2019-08-03 12:00:00 23.4 6 Este 10 Este 0 -- -- 54
2019-08-03 11:00:00 19 4 Sudeste 10 Este 0 -- -- 73
2019-08-03 10:00:00 14.9 3 Sudeste 5 Sudoeste 0 -- -- 89
2019-08-03 09:00:00 12.4 4 Noroeste 6 Noroeste 0 -- -- 96
2019-08-03 08:00:00 11.6 5 Noroeste 7 Noroeste 0 -- -- 96
2019-08-03 07:00:00 12.7 2 Noroeste 10 Noroeste 0 -- -- 96
2019-08-03 06:00:00 12.7 8 Noroeste 12 Noroeste 0 -- -- 96
2019-08-03 05:00:00 13.4 6 Noroeste 12 Noroeste 0 -- -- 96
2019-08-03 04:00:00 14.1 6 Noroeste 9 Noroeste 0 -- -- 95
2019-08-03 03:00:00 13.8 3 Oeste 8 Oeste 0 -- -- 94
2019-08-03 02:00:00 14.2 0 Calma 5 Noroeste 0 -- -- 93
2019-08-03 01:00:00 14.8 0 Calma 5 Norte 0 -- -- 91
2019-08-03 00:00:00 16.6 4 Nordeste 12 Norte 0 -- -- 85
2019-08-02 23:00:00 18.2 7 Norte 12 Noroeste 0 -- -- 80
2019-08-02 22:00:00 20.1 6 Norte 14 Norte 0 -- -- 71
2019-08-02 21:00:00 23.5 7 Norte 18 Noroeste 0 -- -- 58
2019-08-02 20:00:00 26.2 9 Norte 24 Nordeste 0 -- -- 52
2019-08-02 19:00:00 26.9 11 Norte 25 Norte 0 -- -- 45
2019-08-02 18:00:00 28.2 10 Norte 25 Noroeste 0 -- -- 46
2019-08-02 17:00:00 28.8 10 Norte 23 Nordeste 0 -- -- 42
2019-08-02 16:00:00 28.9 11 Este 19 Este 0 -- -- 39
2019-08-02 15:00:00 27.7 11 Este 27 Sudeste 0 -- -- 45
2019-08-02 14:00:00 25.9 11 Sudeste 17 Este 0 -- -- 46
2019-08-02 13:00:00 24.1 8 Sudeste 17 Sudeste 0 -- -- 52
2019-08-02 12:00:00 21.3 8 Sudeste 14 Sudeste 0 -- -- 61
2019-08-02 11:00:00 19.5 5 Sudeste 13 Sudeste 0 -- -- 67
2019-08-02 10:00:00 17 5 Sudeste 12 Sudeste 0 -- -- 74
2019-08-02 09:00:00 13.8 2 Sudoeste 5 Oeste 0 -- -- 92
2019-08-02 08:00:00 12.1 0 Calma 4 Sudoeste 0 -- -- 94
2019-08-02 07:00:00 12.3 2 Sudoeste 8 Norte 0 -- -- 90
2019-08-02 06:00:00 13.2 0 Calma 9 Nordeste 0 -- -- 89
2019-08-02 05:00:00 13.8 5 Nordeste 10 Nordeste 0 -- -- 89
2019-08-02 04:00:00 13.9 5 Norte 11 Nordeste 0 -- -- 88
2019-08-02 03:00:00 12.8 3 Sudeste 11 Noroeste 0 -- -- 89
2019-08-02 02:00:00 13.7 6 Nordeste 11 Nordeste 0 -- -- 85
2019-08-02 01:00:00 15.3 8 Nordeste 18 Nordeste 0 -- -- 81
2019-08-02 00:00:00 15.8 11 Este 22 Este 0 -- -- 80
2019-08-01 23:00:00 16.2 6 Nordeste 14 Nordeste 0 -- -- 79
2019-08-01 22:00:00 16.4 4 Nordeste 18 Este 0 -- -- 80
2019-08-01 21:00:00 17 10 Nordeste 27 Nordeste 0 -- -- 77
2019-08-01 20:00:00 18 10 Nordeste 26 Norte 0 -- -- 73
2019-08-01 19:00:00 19.8 13 Nordeste 28 Norte 0 -- -- 71
2019-08-01 18:00:00 20.7 13 Norte 26 Nordeste 0 -- -- 68
2019-08-01 17:00:00 21.8 11 Nordeste 23 Nordeste 0 -- -- 64
2019-08-01 16:00:00 21.2 9 Norte 22 Noroeste 0 -- -- 66
2019-08-01 15:00:00 20 7 Nordeste 22 Noroeste 0 -- -- 72
2019-08-01 14:00:00 19.1 6 Noroeste 16 Este 0 -- -- 74
2019-08-01 13:00:00 18.8 6 Este 15 Este 0 -- -- 75
2019-08-01 12:00:00 17.7 5 Noroeste 12 Este 0 -- -- 76
2019-08-01 11:00:00 16.9 3 Sudeste 10 Norte 0 -- -- 77
2019-08-01 10:00:00 15.7 6 Noroeste 14 Noroeste 0 -- -- 80
2019-08-01 09:00:00 14.5 7 Noroeste 15 Norte 0 -- -- 82
2019-08-01 08:00:00 14 5 Noroeste 14 Norte 0 -- -- 84
2019-08-01 07:00:00 13.8 6 Noroeste 12 Noroeste 0 -- -- 84
2019-08-01 06:00:00 14 3 Norte 9 Oeste 0 -- -- 87
2019-08-01 05:00:00 13.9 3 Noroeste 13 Nordeste 0 -- -- 86
2019-08-01 04:00:00 13.9 4 Nordeste 13 Este 0 -- -- 85
2019-08-01 03:00:00 13 4 Norte 6 Norte 0 -- -- 90
2019-08-01 02:00:00 13.2 4 Este 8 Norte 0 -- -- 88
2019-08-01 01:00:00 13.7 6 Nordeste 12 Nordeste 0 -- -- 85
2019-08-01 00:00:00 14.4 9 Nordeste 18 Este 0 -- -- 84
2019-07-31 23:00:00 14.7 4 Este 15 Norte 0 -- -- 84
2019-07-31 22:00:00 15.6 8 Norte 22 Noroeste 0 -- -- 80
2019-07-31 21:00:00 16.7 8 Norte 26 Norte 0 -- -- 75
2019-07-31 20:00:00 18.8 12 Norte 26 Norte 0 -- -- 68
2019-07-31 19:00:00 21 10 Norte 22 Nordeste 0 -- -- 59
2019-07-31 18:00:00 22.6 10 Norte 25 Nordeste 0 -- -- 50
2019-07-31 17:00:00 23 13 Nordeste 24 Este 0 -- -- 46
2019-07-31 16:00:00 22.1 10 Nordeste 22 Este 0 -- -- 49
2019-07-31 15:00:00 21.9 9 Nordeste 27 Este 0 -- -- 49
2019-07-31 14:00:00 21.7 17 Este 27 Este 0 -- -- 47
2019-07-31 13:00:00 20.3 13 Este 26 Nordeste 0 -- -- 50
2019-07-31 12:00:00 18.9 9 Este 22 Este 0 -- -- 53
2019-07-31 11:00:00 16.7 8 Sudeste 14 Sur 0 -- -- 61
2019-07-31 10:00:00 14.2 3 Sur 9 Sudeste 0 -- -- 71
2019-07-31 09:00:00 10.6 0 Calma 5 Oeste 0 -- -- 90
2019-07-31 08:00:00 7.8 6 Oeste 8 Oeste 0 -- -- 94
2019-07-31 07:00:00 8.4 3 Oeste 4 Oeste 0 -- -- 92
2019-07-31 06:00:00 10.1 3 Sudoeste 11 Nordeste 0 -- -- 89
2019-07-31 05:00:00 11.4 5 Norte 11 Nordeste 0 -- -- 85
2019-07-31 04:00:00 11.8 5 Norte 13 Nordeste 0 -- -- 85
2019-07-31 03:00:00 12 8 Nordeste 14 Nordeste 0 -- -- 82
2019-07-31 02:00:00 12.6 6 Este 12 Este 0 -- -- 82
2019-07-31 01:00:00 12.7 5 Este 13 Este 0 -- -- 84
2019-07-31 00:00:00 12 6 Este 14 Noroeste 0 -- -- 87
2019-07-30 23:00:00 11.7 2 Este 8 Sudeste 0 -- -- 84
2019-07-30 22:00:00 12.8 5 Sur 17 Noroeste 0 -- -- 78
2019-07-30 21:00:00 14.1 12 Norte 33 Noroeste 0 -- -- 73
2019-07-30 20:00:00 16.2 14 Norte 31 Norte 0 -- -- 64
2019-07-30 19:00:00 17.4 13 Norte 30 Norte 0 -- -- 61
2019-07-30 18:00:00 17.8 17 Norte 33 Norte 0 -- -- 61
2019-07-30 17:00:00 18.8 13 Norte 29 Norte 0 -- -- 57
2019-07-30 16:00:00 19.8 13 Norte 27 Este 0 -- -- 53
2019-07-30 15:00:00 20.4 8 Nordeste 23 Nordeste 0 -- -- 49
2019-07-30 14:00:00 18.9 6 Nordeste 20 Sudeste 0 -- -- 49
2019-07-30 13:00:00 17.8 10 Norte 22 Nordeste 0 -- -- 51
2019-07-30 12:00:00 16.5 10 Norte 19 Norte 0 -- -- 57
2019-07-30 11:00:00 15.9 8 Noroeste 21 Noroeste 0 -- -- 59
2019-07-30 10:00:00 15.6 4 Este 11 Este 0 -- -- 65
2019-07-30 09:00:00 12.7 5 Este 8 Este 0 -- -- 81
2019-07-30 08:00:00 10.9 3 Este 11 Nordeste 0 -- -- 86
2019-07-30 07:00:00 11.4 8 Nordeste 10 Nordeste 0 -- -- 82
2019-07-30 06:00:00 12.8 6 Este 12 Este 0 -- -- 78
2019-07-30 05:00:00 13.1 4 Este 9 Este 0 -- -- 80
2019-07-30 04:00:00 13.2 7 Nordeste 13 Este 0 -- -- 80
2019-07-30 03:00:00 13.7 5 Norte 17 Este 0 -- -- 82
2019-07-30 02:00:00 14 7 Nordeste 13 Nordeste 0 -- -- 83
2019-07-30 01:00:00 14.4 3 Este 15 Este 0 -- -- 81
2019-07-30 00:00:00 14.5 5 Nordeste 13 Este 0 -- -- 81
2019-07-29 23:00:00 14.9 9 Este 14 Nordeste 0 -- -- 80
2019-07-29 22:00:00 15.2 3 Sudeste 24 Noroeste 0 -- -- 80
2019-07-29 21:00:00 15.9 7 Norte 29 Noroeste 0 -- -- 78
2019-07-29 20:00:00 17.6 17 Norte 30 Norte 0 -- -- 73
2019-07-29 19:00:00 19 18 Noroeste 38 Noroeste 0 -- -- 69
2019-07-29 18:00:00 20.5 20 Noroeste 40 Noroeste 0 -- -- 66
2019-07-29 17:00:00 25 14 Noroeste 36 Sudoeste 0 -- -- 52
2019-07-29 16:00:00 26.9 13 Sudoeste 33 Sudoeste 0 -- -- 31
2019-07-29 15:00:00 26.4 15 Sudoeste 36 Sudoeste 0 -- -- 34
2019-07-29 14:00:00 25.7 12 Sudoeste 33 Sudoeste 0 -- -- 40
2019-07-29 13:00:00 24.4 14 Sudeste 27 Sudoeste 0 -- -- 43
2019-07-29 12:00:00 22.6 6 Sudoeste 14 Oeste 0 -- -- 48
2019-07-29 11:00:00 19.2 2 Sur 6 Este 0 -- -- 57
2019-07-29 10:00:00 14.3 4 Este 7 Este 0 -- -- 74
2019-07-29 09:00:00 9.9 3 Sudeste 5 Este 0 -- -- 96
2019-07-29 08:00:00 6.3 0 Calma 9 Noroeste 0 -- -- 97
2019-07-29 07:00:00 6.1 3 Oeste 7 Sudoeste 0 -- -- 96
2019-07-29 06:00:00 6.7 0 Calma 4 Oeste 0 -- -- 95
2019-07-29 05:00:00 7.1 3 Noroeste 9 Oeste 0 -- -- 95
2019-07-29 04:00:00 7.5 4 Oeste 6 Oeste 0 -- -- 94
2019-07-29 03:00:00 8.5 2 Oeste 5 Oeste 0 -- -- 92
2019-07-29 02:00:00 9.7 2 Oeste 9 Oeste 0 -- -- 90
2019-07-29 01:00:00 10.8 6 Oeste 11 Oeste 0 -- -- 87
2019-07-29 00:00:00 12.4 2 Oeste 6 Oeste 0 -- -- 81
2019-07-28 23:00:00 14.9 0 Calma 8 Noroeste 0 -- -- 73
2019-07-28 22:00:00 17.5 4 Noroeste 8 Noroeste 0 -- -- 60
2019-07-28 21:00:00 25.6 2 Sudoeste 15 Oeste 0 -- -- 35
2019-07-28 20:00:00 25.9 7 Oeste 17 Sudoeste 0 -- -- 32
2019-07-28 19:00:00 25.5 9 Sudoeste 18 Sudoeste 0 -- -- 33
2019-07-28 18:00:00 24.7 7 Sudoeste 20 Sudoeste 0 -- -- 36
2019-07-28 17:00:00 23.9 6 Sudeste 20 Sudoeste 0 -- -- 42
2019-07-28 16:00:00 22.9 9 Oeste 21 Sudoeste 0 -- -- 42
2019-07-28 15:00:00 22.2 9 Sudeste 20 Oeste 0 -- -- 45
2019-07-28 14:00:00 20.5 8 Oeste 15 Noroeste 0 -- -- 50
2019-07-28 13:00:00 19.4 4 Sudeste 13 Sudeste 0 -- -- 56
2019-07-28 12:00:00 18.5 6 Este 13 Nordeste 0 -- -- 60
2019-07-28 11:00:00 16.7 7 Este 12 Este 0 -- -- 66
2019-07-28 10:00:00 14.4 3 Este 5 Oeste 0 -- -- 77
2019-07-28 09:00:00 9.8 3 Oeste 9 Noroeste 0 -- -- 99
2019-07-28 08:00:00 7.5 2 Sur 8 Oeste 0 -- -- 98
2019-07-28 07:00:00 7.4 5 Oeste 8 Oeste 0 -- -- 97
2019-07-28 06:00:00 8 3 Oeste 8 Sudoeste 0 -- -- 97
2019-07-28 05:00:00 8.2 3 Oeste 7 Noroeste 0 -- -- 96
2019-07-28 04:00:00 9.5 0 Calma 7 Norte 0 -- -- 94
2019-07-28 03:00:00 10.7 5 Este 9 Este 0 -- -- 95
2019-07-28 02:00:00 10.9 4 Sur 10 Este 0 -- -- 93
2019-07-28 01:00:00 11.4 3 Este 12 Norte 0 -- -- 91
2019-07-28 00:00:00 11.7 3 Oeste 13 Nordeste 0 -- -- 89
2019-07-27 23:00:00 12.7 6 Norte 20 Nordeste 0 -- -- 87
2019-07-26 12:00:00 15.6 11 Noroeste 25 Noroeste 0 -- -- 84
2019-07-26 11:00:00 17 10 Nordeste 29 Nordeste 0 -- -- 79
2019-07-26 10:00:00 17 6 Sudoeste 23 Norte 0 -- -- 79
2019-07-26 09:00:00 16.7 8 Norte 23 Norte 0 -- -- 83
2019-07-26 08:00:00 16.3 9 Noroeste 20 Noroeste 0 -- -- 86
2019-07-26 07:00:00 16.7 6 Norte 15 Este 0 -- -- 87
2019-07-26 06:00:00 17.2 4 Nordeste 10 Norte 0 -- -- 90
2019-07-26 05:00:00 17.2 4 Norte 15 Noroeste 0 -- -- 89
2019-07-26 04:00:00 17.5 6 Nordeste 17 Nordeste 0 -- -- 87
2019-07-26 03:00:00 17.5 4 Noroeste 12 Noroeste 0 -- -- 85
2019-07-26 02:00:00 17.8 3 Noroeste 12 Este 0 -- -- 85
2019-07-26 01:00:00 18.1 6 Este 16 Este 0 -- -- 85
2019-07-26 00:00:00 18.2 3 Sur 13 Noroeste 0 -- -- 81
2019-07-25 23:00:00 17.9 5 Este 23 Noroeste 0 -- -- 81
2019-07-25 22:00:00 18.2 12 Noroeste 30 Noroeste 0 -- -- 78
2019-07-25 21:00:00 19.9 12 Norte 31 Norte 0 -- -- 70
2019-07-25 20:00:00 21.7 13 Noroeste 35 Oeste 0 -- -- 72
2019-07-25 19:00:00 32.3 16 Oeste 34 Oeste 0 -- -- 40
2019-07-25 18:00:00 34.4 17 Sudoeste 35 Oeste 0 -- -- 22
2019-07-25 17:00:00 34 16 Sudoeste 33 Sudoeste 0 -- -- 23
2019-07-25 16:00:00 33.4 16 Sudoeste 33 Sudoeste 0 -- -- 23
2019-07-25 15:00:00 32.4 14 Sur 36 Sudoeste 0 -- -- 29
2019-07-25 14:00:00 32 11 Sudoeste 30 Sudoeste 0 -- -- 30
2019-07-25 13:00:00 30.5 13 Sur 29 Sudoeste 0 -- -- 33
2019-07-25 12:00:00 29.7 11 Sur 21 Sudoeste 0 -- -- 34
2019-07-25 11:00:00 26.4 7 Este 11 Este 0 -- -- 49
2019-07-25 10:00:00 21.4 5 Este 8 Sudeste 0 -- -- 65
2019-07-25 09:00:00 16.5 0 Calma 5 Sudoeste 0 -- -- 82
2019-07-25 08:00:00 13.8 0 Calma 6 Este 0 -- -- 91
2019-07-25 07:00:00 13.1 2 Sudoeste 9 Oeste 0 -- -- 91
2019-07-25 06:00:00 13.5 4 Oeste 8 Oeste 0 -- -- 90
2019-07-25 05:00:00 14.1 5 Oeste 11 Noroeste 0 -- -- 89
2019-07-25 04:00:00 14.8 4 Oeste 8 Oeste 0 -- -- 87
2019-07-25 03:00:00 15.7 3 Oeste 8 Oeste 0 -- -- 83
2019-07-25 02:00:00 17 5 Oeste 10 Oeste 0 -- -- 79
2019-07-25 01:00:00 18.6 2 Oeste 9 Oeste 0 -- -- 72
2019-07-25 00:00:00 20.3 0 Calma 13 Oeste 0 -- -- 67
2019-07-24 23:00:00 22.6 5 Oeste 8 Oeste 0 -- -- 59
2019-07-24 22:00:00 26.9 3 Oeste 8 Oeste 0 -- -- 47
2019-07-24 21:00:00 33.1 4 Sudoeste 13 Sur 0 -- -- 32
2019-07-24 20:00:00 34.6 8 Sur 27 Sudoeste 0 -- -- 26
2019-07-24 19:00:00 35.6 8 Sudoeste 32 Sudoeste 0 -- -- 26
2019-07-24 18:00:00 35 11 Sur 35 Sudoeste 0 -- -- 26
2019-07-24 17:00:00 35 9 Sur 36 Sur 0 -- -- 27
2019-07-24 16:00:00 34 17 Sur 33 Sudoeste 0 -- -- 28
2019-07-24 15:00:00 33.6 13 Sur 31 Sudeste 0 -- -- 29
2019-07-24 14:00:00 32.5 13 Sudeste 27 Sudeste 0 -- -- 31
2019-07-24 13:00:00 31.7 10 Sudoeste 24 Sudeste 0 -- -- 33
2019-07-24 12:00:00 27.5 4 Este 9 Sudeste 0 -- -- 52
2019-07-24 11:00:00 23.1 5 Sudeste 12 Este 0 -- -- 69
2019-07-24 10:00:00 19.4 2 Sudoeste 9 Sudeste 0 -- -- 77
2019-07-24 09:00:00 16.2 0 Calma 4 Oeste 0 -- -- 91
2019-07-24 08:00:00 13.7 0 Calma 8 Noroeste 0 -- -- 97
2019-07-24 07:00:00 13.3 8 Oeste 12 Oeste 0 -- -- 95
2019-07-24 06:00:00 14.1 5 Noroeste 9 Oeste 0 -- -- 94
2019-07-24 05:00:00 15 0 Calma 15 Oeste 0 -- -- 92
2019-07-24 04:00:00 16 4 Noroeste 14 Oeste 0 -- -- 92
2019-07-24 03:00:00 17.5 6 Noroeste 20 Este 0 -- -- 87
2019-07-24 02:00:00 17.3 9 Oeste 22 Noroeste 0 -- -- 88
2019-07-24 01:00:00 17.7 5 Noroeste 19 Noroeste 0 -- -- 85
2019-07-24 00:00:00 17.7 6 Sudoeste 27 Noroeste 0 -- -- 87
2019-07-23 23:00:00 18.4 8 Este 25 Sudoeste 0.4 -- -- 84
2019-07-23 22:00:00 21.2 11 Oeste 31 Sudoeste 0.6 -- -- 67
2019-07-23 21:00:00 21.7 12 Este 39 Nordeste 0 -- -- 64
2019-07-23 20:00:00 23 27 Este 68 Sudeste 0 -- -- 57
2019-07-23 19:00:00 35 6 Oeste 21 Oeste 0 -- -- 26
2019-07-23 18:00:00 35.1 5 Sudoeste 22 Oeste 0 -- -- 26
2019-07-23 17:00:00 35.1 10 Sudoeste 35 Sudoeste 0 -- -- 27
2019-07-23 16:00:00 34 14 Sudoeste 28 Sudoeste 0 -- -- 27
2019-07-23 15:00:00 32.5 15 Sudoeste 33 Sudoeste 0 -- -- 33
2019-07-23 14:00:00 30.8 14 Sur 40 Sudoeste 0 -- -- 36
2019-07-23 13:00:00 29.1 7 Sudeste 15 Sudeste 0 -- -- 42
2019-07-23 12:00:00 26.8 5 Oeste 18 Oeste 0 -- -- 46
2019-07-23 11:00:00 23.5 12 Oeste 37 Oeste 0 -- -- 54
2019-07-23 10:00:00 24 12 Oeste 28 Oeste 0 -- -- 49
2019-07-23 09:00:00 20 8 Noroeste 17 Noroeste 0 -- -- 68
2019-07-23 08:00:00 13.3 3 Nordeste 8 Sudoeste 0 -- -- 93
2019-07-23 07:00:00 12.1 2 Oeste 8 Oeste 0 -- -- 93
2019-07-23 06:00:00 12.9 3 Oeste 6 Nordeste 0 -- -- 90
2019-07-23 05:00:00 13.9 0 Calma 13 Oeste 0 -- -- 86
2019-07-23 04:00:00 13.9 5 Oeste 9 Sudoeste 0 -- -- 87
2019-07-23 03:00:00 15.1 4 Oeste 8 Oeste 0 -- -- 82
2019-07-23 02:00:00 16.2 2 Este 14 Noroeste 0 -- -- 77
2019-07-23 01:00:00 18.1 4 Oeste 8 Este 0 -- -- 70
2019-07-23 00:00:00 20.5 2 Nordeste 7 Oeste 0 -- -- 63
2019-07-22 23:00:00 22.1 5 Nordeste 25 Sudoeste 0 -- -- 58
2019-07-22 22:00:00 24.2 14 Oeste 46 Sudoeste 0 -- -- 55
2019-07-22 21:00:00 28 10 Noroeste 28 Norte 0 -- -- 59
2019-07-22 20:00:00 28.7 17 Norte 24 Norte 0 -- -- 53
2019-07-22 19:00:00 30.5 6 Oeste 13 Este 0 -- -- 45
2019-07-22 18:00:00 34.2 6 Este 22 Este 0 -- -- 30
2019-07-22 17:00:00 36.2 8 Sudeste 22 Este 0 -- -- 29
2019-07-22 16:00:00 35.8 12 Este 24 Este 0 -- -- 29
2019-07-22 15:00:00 34.1 9 Este 15 Nordeste 0 -- -- 35
2019-07-22 14:00:00 32.2 6 Este 15 Sudeste 0 -- -- 38
2019-07-22 13:00:00 28.3 6 Sudeste 12 Este 0 -- -- 55
2019-07-22 12:00:00 25 6 Sur 12 Sur 0 -- -- 65
2019-07-22 11:00:00 22.3 5 Sudeste 12 Sudeste 0 -- -- 72
2019-07-22 10:00:00 19.5 5 Sudeste 9 Este 0 -- -- 81
2019-07-22 09:00:00 18.4 6 Este 11 Este 0 -- -- 85
2019-07-22 08:00:00 17.9 4 Este 8 Nordeste 0 -- -- 87
2019-07-22 07:00:00 17.9 4 Nordeste 8 Este 0 -- -- 87
2019-07-22 06:00:00 18.1 3 Este 8 Nordeste 0 -- -- 87
2019-07-22 05:00:00 18.1 5 Nordeste 9 Nordeste 0 -- -- 86
2019-07-22 04:00:00 18.2 3 Norte 12 Este 0 -- -- 86
2019-07-22 03:00:00 18.2 3 Norte 10 Norte 0 -- -- 85
2019-07-22 02:00:00 18.2 5 Nordeste 14 Este 0 -- -- 86
2019-07-22 01:00:00 18.3 3 Norte 10 Norte 0 -- -- 86
2019-07-22 00:00:00 18.4 5 Norte 13 Nordeste 0 -- -- 85
2019-07-21 23:00:00 18.1 5 Norte 15 Norte 0 -- -- 85
2019-07-21 22:00:00 18.7 8 Norte 16 Norte 0 -- -- 82
2019-07-21 21:00:00 20.8 7 Nordeste 27 Noroeste 0 -- -- 75
2019-07-21 20:00:00 21.8 14 Norte 33 Noroeste 0 -- -- 72
2019-07-21 19:00:00 23 17 Norte 34 Noroeste 0 -- -- 71
2019-07-21 18:00:00 27 19 Norte 33 Noroeste 0 -- -- 60
2019-07-21 17:00:00 29 5 Sudeste 18 Este 0 -- -- 47
2019-07-21 16:00:00 27.7 9 Este 21 Este 0 -- -- 52
2019-07-21 15:00:00 25.5 14 Este 30 Sudeste 0 -- -- 58
2019-07-21 14:00:00 23.7 9 Este 18 Norte 0 -- -- 63
2019-07-21 13:00:00 21.5 10 Este 19 Este 0 -- -- 70
2019-07-21 12:00:00 20.2 12 Nordeste 20 Nordeste 0 -- -- 75
2019-07-21 11:00:00 18.8 8 Nordeste 15 Este 0 -- -- 79
2019-07-21 10:00:00 18.3 7 Nordeste 12 Norte 0 -- -- 80
2019-07-21 09:00:00 17.3 2 Este 5 Oeste 0 -- -- 84
2019-07-21 08:00:00 16.5 3 Oeste 5 Oeste 0 -- -- 86
2019-07-21 07:00:00 16.7 0 Calma 9 Sudeste 0 -- -- 84
2019-07-21 06:00:00 16.9 4 Este 10 Este 0 -- -- 84
2019-07-21 05:00:00 17 5 Nordeste 14 Este 0 -- -- 85
2019-07-21 04:00:00 17.3 4 Este 13 Nordeste 0 -- -- 83
2019-07-21 03:00:00 17.3 9 Nordeste 15 Norte 0 -- -- 82
2019-07-21 02:00:00 16.8 6 Norte 24 Norte 0 -- -- 87
2019-07-21 01:00:00 17 9 Norte 22 Norte 0 -- -- 86
2019-07-21 00:00:00 17.2 10 Norte 21 Norte 0 -- -- 84
2019-07-20 23:00:00 17.5 9 Norte 23 Noroeste 0 -- -- 83
2019-07-20 22:00:00 17.8 8 Norte 27 Norte 0 -- -- 82
2019-07-20 21:00:00 18.3 7 Norte 24 Noroeste 0 -- -- 79
2019-07-20 20:00:00 19.2 11 Norte 32 Norte 0 -- -- 77
2019-07-20 19:00:00 19.9 17 Norte 36 Norte 0 -- -- 77
2019-07-20 18:00:00 23.7 18 Norte 32 Norte 0 -- -- 63
2019-07-20 17:00:00 25.9 17 Noroeste 32 Norte 0 -- -- 56
2019-07-20 16:00:00 27.6 16 Noroeste 32 Noroeste 0 -- -- 52
2019-07-20 15:00:00 27.6 13 Noroeste 28 Noroeste 0 -- -- 50
2019-07-20 14:00:00 26.9 13 Noroeste 25 Oeste 0 -- -- 50
2019-07-20 13:00:00 25.9 6 Oeste 22 Sudeste 0 -- -- 52
2019-07-20 12:00:00 24.6 12 Este 26 Este 0 -- -- 52
2019-07-20 11:00:00 21.9 5 Sudeste 10 Sudoeste 0 -- -- 66
2019-07-20 10:00:00 19.5 6 Sudeste 9 Sudeste 0 -- -- 76
2019-07-20 09:00:00 15.7 3 Este 4 Este 0 -- -- 89
2019-07-20 08:00:00 11.7 0 Calma 5 Sudoeste 0 -- -- 96
2019-07-20 07:00:00 11.2 2 Oeste 6 Sudoeste 0 -- -- 95
2019-07-20 06:00:00 12.1 0 Calma 6 Oeste 0 -- -- 94
2019-07-20 05:00:00 12.6 0 Calma 7 Noroeste 0 -- -- 93
2019-07-20 04:00:00 13.5 5 Oeste 8 Noroeste -- -- -- 92
2019-07-20 03:00:00 14.6 2 Sudoeste 5 Noroeste 0 -- -- 92
2019-07-20 02:00:00 15.6 2 Norte 9 Oeste 0 -- -- 89
2019-07-20 01:00:00 16.8 4 Este 8 Sudeste 0 -- -- 87
2019-07-20 00:00:00 17.7 4 Este 5 Este 0 -- -- 85
2019-07-19 23:00:00 19.4 0 Calma 7 Este 0 -- -- 80
2019-07-19 22:00:00 21.5 3 Nordeste 14 Nordeste 0 -- -- 72
2019-07-19 21:00:00 24.4 4 Sur 23 Norte 0 -- -- 63
2019-07-19 20:00:00 27.8 13 Norte 23 Oeste 0 -- -- 54
2019-07-19 19:00:00 33.1 11 Oeste 27 Sudoeste 0 -- -- 37
2019-07-19 18:00:00 34.1 10 Sudoeste 31 Sudoeste 0 -- -- 23
2019-07-19 17:00:00 33.7 9 Oeste 28 Sur 0 -- -- 24
2019-07-19 16:00:00 33 9 Sur 24 Oeste 0 -- -- 25
2019-07-19 15:00:00 32 10 Sudoeste 28 Sudoeste 0 -- -- 27
2019-07-19 14:00:00 30.5 6 Noroeste 15 Sudoeste 0 -- -- 34
2019-07-19 13:00:00 27 3 Sudeste 9 Este 0 -- -- 42
2019-07-19 12:00:00 23.3 6 Este 11 Sudeste 0 -- -- 54
2019-07-19 11:00:00 20 5 Sudeste 9 Este 0 -- -- 62
2019-07-19 10:00:00 15.9 5 Este 9 Sudeste 0 -- -- 76
2019-07-19 09:00:00 10.8 0 Calma 7 Oeste 0 -- -- 95
2019-07-19 08:00:00 7.8 4 Noroeste 8 Oeste 0 -- -- 96
2019-07-19 07:00:00 7.6 3 Noroeste 7 Noroeste 0 -- -- 95
2019-07-19 06:00:00 8.2 3 Oeste 5 Oeste 0 -- -- 94
2019-07-19 05:00:00 9 4 Oeste 8 Noroeste 0 -- -- 93
2019-07-19 04:00:00 9.6 0 Calma 4 Este 0 -- -- 92
2019-07-19 03:00:00 10.2 0 Calma 4 Nordeste 0 -- -- 89
2019-07-19 02:00:00 11.7 2 Este 5 Este 0 -- -- 89
2019-07-19 01:00:00 13.1 0 Calma 9 Norte 0 -- -- 85
2019-07-19 00:00:00 14.7 7 Norte 13 Este 0 -- -- 77